sensor_id;sensor_type;location;lat;lon;timestamp;pressure;altitude;pressure_sealevel;temperature;humidity
11692;BME280;33659;42.672;23.354;2023-05-29T00:01:45;80193.28;;;17.13;72.08
11692;BME280;33659;42.672;23.354;2023-05-29T00:04:11;80201.06;;;17.15;72.11
11692;BME280;33659;42.672;23.354;2023-05-29T00:06:40;80198.38;;;17.17;72.11
11692;BME280;33659;42.672;23.354;2023-05-29T00:09:07;80193.50;;;17.07;72.49
11692;BME280;33659;42.672;23.354;2023-05-29T00:11:34;80193.41;;;17.09;72.70
11692;BME280;33659;42.672;23.354;2023-05-29T00:14:01;80199.16;;;17.14;72.79
11692;BME280;33659;42.672;23.354;2023-05-29T00:16:28;80195.97;;;17.11;72.81
11692;BME280;33659;42.672;23.354;2023-05-29T00:18:55;80199.00;;;17.18;72.65
11692;BME280;33659;42.672;23.354;2023-05-29T00:21:23;80195.66;;;17.19;72.66
11692;BME280;33659;42.672;23.354;2023-05-29T00:23:51;80197.00;;;17.18;72.33
11692;BME280;33659;42.672;23.354;2023-05-29T00:26:17;80198.38;;;17.17;72.52
11692;BME280;33659;42.672;23.354;2023-05-29T00:28:45;80202.84;;;17.21;72.61
11692;BME280;33659;42.672;23.354;2023-05-29T00:31:11;80194.47;;;17.16;72.74
11692;BME280;33659;42.672;23.354;2023-05-29T00:33:38;80186.81;;;17.10;72.67
11692;BME280;33659;42.672;23.354;2023-05-29T00:36:05;80190.72;;;17.11;72.85
11692;BME280;33659;42.672;23.354;2023-05-29T00:38:33;80181.28;;;16.99;73.17
11692;BME280;33659;42.672;23.354;2023-05-29T00:41:01;80179.59;;;16.92;73.94
11692;BME280;33659;42.672;23.354;2023-05-29T00:43:28;80182.78;;;16.94;73.85
11692;BME280;33659;42.672;23.354;2023-05-29T00:45:55;80180.94;;;16.91;73.97
11692;BME280;33659;42.672;23.354;2023-05-29T00:48:22;80173.78;;;16.89;74.02
11692;BME280;33659;42.672;23.354;2023-05-29T00:50:49;80182.44;;;16.86;73.74
11692;BME280;33659;42.672;23.354;2023-05-29T00:53:16;80154.78;;;16.68;74.37
11692;BME280;33659;42.672;23.354;2023-05-29T00:55:43;80160.56;;;16.53;74.92
11692;BME280;33659;42.672;23.354;2023-05-29T00:58:11;80146.66;;;16.38;75.51
11692;BME280;33659;42.672;23.354;2023-05-29T01:00:38;80130.91;;;16.19;75.82
11692;BME280;33659;42.672;23.354;2023-05-29T01:03:06;80114.88;;;16.09;76.41
11692;BME280;33659;42.672;23.354;2023-05-29T01:05:34;80102.75;;;15.99;76.75
11692;BME280;33659;42.672;23.354;2023-05-29T01:08:01;80106.78;;;15.96;76.64
11692;BME280;33659;42.672;23.354;2023-05-29T01:10:28;80101.53;;;15.96;77.25
11692;BME280;33659;42.672;23.354;2023-05-29T01:13:00;80115.50;;;16.09;77.23
11692;BME280;33659;42.672;23.354;2023-05-29T01:15:37;80120.41;;;16.19;77.11
11692;BME280;33659;42.672;23.354;2023-05-29T01:18:23;80124.66;;;16.29;76.84
11692;BME280;33659;42.672;23.354;2023-05-29T01:21:01;80113.38;;;16.33;76.89
11692;BME280;33659;42.672;23.354;2023-05-29T01:23:59;80140.69;;;16.40;76.56
11692;BME280;33659;42.672;23.354;2023-05-29T01:26:46;80132.94;;;16.55;75.92
11692;BME280;33659;42.672;23.354;2023-05-29T01:29:18;80143.81;;;16.63;75.19
11692;BME280;33659;42.672;23.354;2023-05-29T01:31:47;80139.75;;;16.66;75.03
11692;BME280;33659;42.672;23.354;2023-05-29T01:34:14;80151.34;;;16.73;74.67
11692;BME280;33659;42.672;23.354;2023-05-29T01:36:40;80152.78;;;16.70;75.04
11692;BME280;33659;42.672;23.354;2023-05-29T01:39:08;80144.75;;;16.74;74.92
11692;BME280;33659;42.672;23.354;2023-05-29T01:41:37;80132.72;;;16.61;75.16
11692;BME280;33659;42.672;23.354;2023-05-29T01:44:06;80149.22;;;16.78;75.17
11692;BME280;33659;42.672;23.354;2023-05-29T01:46:34;80137.06;;;16.68;75.50
11692;BME280;33659;42.672;23.354;2023-05-29T01:49:02;80149.28;;;16.76;75.58
11692;BME280;33659;42.672;23.354;2023-05-29T01:51:29;80139.22;;;16.83;74.93
11692;BME280;33659;42.672;23.354;2023-05-29T01:53:57;80137.94;;;16.82;74.87
11692;BME280;33659;42.672;23.354;2023-05-29T01:56:26;80136.94;;;16.72;74.88
11692;BME280;33659;42.672;23.354;2023-05-29T01:58:55;80124.22;;;16.60;75.06
11692;BME280;33659;42.672;23.354;2023-05-29T02:01:23;80122.66;;;16.48;75.19
11692;BME280;33659;42.672;23.354;2023-05-29T02:03:50;80110.19;;;16.30;75.76
11692;BME280;33659;42.672;23.354;2023-05-29T02:06:17;80095.72;;;16.12;76.42
11692;BME280;33659;42.672;23.354;2023-05-29T02:08:44;80090.97;;;15.98;77.54
11692;BME280;33659;42.672;23.354;2023-05-29T02:11:11;80078.44;;;16.01;77.51
11692;BME280;33659;42.672;23.354;2023-05-29T02:13:38;80062.53;;;15.86;77.45
11692;BME280;33659;42.672;23.354;2023-05-29T02:16:06;80078.56;;;15.96;77.22
11692;BME280;33659;42.672;23.354;2023-05-29T02:18:33;80076.56;;;15.78;77.69
11692;BME280;33659;42.672;23.354;2023-05-29T02:21:00;80062.06;;;15.60;78.68
11692;BME280;33659;42.672;23.354;2023-05-29T02:23:27;80045.41;;;15.49;79.08
11692;BME280;33659;42.672;23.354;2023-05-29T02:25:54;80044.41;;;15.40;79.66
11692;BME280;33659;42.672;23.354;2023-05-29T02:28:20;80044.34;;;15.42;80.00
11692;BME280;33659;42.672;23.354;2023-05-29T02:30:47;80029.81;;;15.45;79.89
11692;BME280;33659;42.672;23.354;2023-05-29T02:33:15;80034.28;;;15.49;79.90
11692;BME280;33659;42.672;23.354;2023-05-29T02:35:42;80041.38;;;15.52;79.81
11692;BME280;33659;42.672;23.354;2023-05-29T02:38:09;80059.44;;;15.60;79.49
11692;BME280;33659;42.672;23.354;2023-05-29T02:40:35;80060.03;;;15.63;79.39
11692;BME280;33659;42.672;23.354;2023-05-29T02:43:02;80051.53;;;15.62;79.30
11692;BME280;33659;42.672;23.354;2023-05-29T02:45:29;80059.44;;;15.60;79.65
11692;BME280;33659;42.672;23.354;2023-05-29T02:47:56;80069.19;;;15.64;79.88
11692;BME280;33659;42.672;23.354;2023-05-29T02:50:24;80061.25;;;15.66;79.90
11692;BME280;33659;42.672;23.354;2023-05-29T02:52:50;80082.19;;;15.87;79.49
11692;BME280;33659;42.672;23.354;2023-05-29T02:55:17;80090.06;;;16.06;78.69
11692;BME280;33659;42.672;23.354;2023-05-29T02:57:44;80098.06;;;16.20;77.71
11692;BME280;33659;42.672;23.354;2023-05-29T03:00:11;80105.72;;;16.27;77.56
11692;BME280;33659;42.672;23.354;2023-05-29T03:02:39;80098.91;;;16.34;76.96
11692;BME280;33659;42.672;23.354;2023-05-29T03:05:06;80114.38;;;16.42;76.44
11692;BME280;33659;42.672;23.354;2023-05-29T03:07:34;80116.31;;;16.43;76.40
11692;BME280;33659;42.672;23.354;2023-05-29T03:10:01;80113.09;;;16.41;76.43
11692;BME280;33659;42.672;23.354;2023-05-29T03:12:29;80105.72;;;16.45;76.61
11692;BME280;33659;42.672;23.354;2023-05-29T03:14:56;80110.25;;;16.47;76.41
11692;BME280;33659;42.672;23.354;2023-05-29T03:17:22;80115.50;;;16.47;76.22
11692;BME280;33659;42.672;23.354;2023-05-29T03:19:50;80105.63;;;16.47;76.26
11692;BME280;33659;42.672;23.354;2023-05-29T03:22:17;80106.13;;;16.52;75.90
11692;BME280;33659;42.672;23.354;2023-05-29T03:24:45;80109.41;;;16.52;75.96
11692;BME280;33659;42.672;23.354;2023-05-29T03:27:12;80110.53;;;16.58;75.84
11692;BME280;33659;42.672;23.354;2023-05-29T03:29:39;80112.31;;;16.63;75.56
11692;BME280;33659;42.672;23.354;2023-05-29T03:32:06;80122.72;;;16.65;75.63
11692;BME280;33659;42.672;23.354;2023-05-29T03:34:33;80126.72;;;16.64;75.43
11692;BME280;33659;42.672;23.354;2023-05-29T03:36:59;80130.47;;;16.69;75.35
11692;BME280;33659;42.672;23.354;2023-05-29T03:39:27;80129.88;;;16.67;74.95
11692;BME280;33659;42.672;23.354;2023-05-29T03:41:55;80140.47;;;16.84;74.01
11692;BME280;33659;42.672;23.354;2023-05-29T03:44:22;80150.84;;;16.88;73.87
11692;BME280;33659;42.672;23.354;2023-05-29T03:46:49;80147.56;;;16.87;73.28
11692;BME280;33659;42.672;23.354;2023-05-29T03:49:16;80131.78;;;16.70;73.71
11692;BME280;33659;42.672;23.354;2023-05-29T03:51:43;80126.00;;;16.47;74.83
11692;BME280;33659;42.672;23.354;2023-05-29T03:54:09;80108.00;;;16.37;75.73
11692;BME280;33659;42.672;23.354;2023-05-29T03:56:36;80122.97;;;16.40;75.76
11692;BME280;33659;42.672;23.354;2023-05-29T03:59:04;80112.31;;;16.44;75.63
11692;BME280;33659;42.672;23.354;2023-05-29T04:01:31;80110.34;;;16.45;75.45
11692;BME280;33659;42.672;23.354;2023-05-29T04:03:58;80113.38;;;16.33;75.94
11692;BME280;33659;42.672;23.354;2023-05-29T04:06:25;80106.44;;;16.25;76.55
11692;BME280;33659;42.672;23.354;2023-05-29T04:08:52;80117.28;;;16.34;76.15
11692;BME280;33659;42.672;23.354;2023-05-29T04:11:19;80119.56;;;16.44;76.29
11692;BME280;33659;42.672;23.354;2023-05-29T04:13:47;80128.84;;;16.60;75.70
11692;BME280;33659;42.672;23.354;2023-05-29T04:16:15;80153.06;;;16.81;75.06
11692;BME280;33659;42.672;23.354;2023-05-29T04:18:42;80168.22;;;16.97;74.45
11692;BME280;33659;42.672;23.354;2023-05-29T04:21:09;80164.50;;;17.09;74.34
11692;BME280;33659;42.672;23.354;2023-05-29T04:23:36;80174.50;;;17.23;74.15
11692;BME280;33659;42.672;23.354;2023-05-29T04:26:03;80192.53;;;17.33;74.06
11692;BME280;33659;42.672;23.354;2023-05-29T04:28:30;80197.56;;;17.40;73.50
11692;BME280;33659;42.672;23.354;2023-05-29T04:30:57;80186.63;;;17.33;72.20
11692;BME280;33659;42.672;23.354;2023-05-29T04:33:25;80189.72;;;17.38;72.49
11692;BME280;33659;42.672;23.354;2023-05-29T04:35:53;80188.63;;;17.32;73.13
11692;BME280;33659;42.672;23.354;2023-05-29T04:38:20;80197.63;;;17.38;73.37
11692;BME280;33659;42.672;23.354;2023-05-29T04:40:50;80202.66;;;17.44;73.79
11692;BME280;33659;42.672;23.354;2023-05-29T04:43:17;80201.16;;;17.49;74.12
11692;BME280;33659;42.672;23.354;2023-05-29T04:45:44;80203.69;;;17.51;74.30
11692;BME280;33659;42.672;23.354;2023-05-29T04:48:10;80219.09;;;17.61;74.06
11692;BME280;33659;42.672;23.354;2023-05-29T04:50:38;80191.72;;;17.73;73.84
11692;BME280;33659;42.672;23.354;2023-05-29T04:53:06;80204.00;;;17.78;73.51
11692;BME280;33659;42.672;23.354;2023-05-29T04:55:33;80208.94;;;17.86;73.72
11692;BME280;33659;42.672;23.354;2023-05-29T04:58:00;80207.28;;;17.96;73.41
11692;BME280;33659;42.672;23.354;2023-05-29T05:00:27;80215.00;;;18.00;73.01
11692;BME280;33659;42.672;23.354;2023-05-29T05:02:53;80230.25;;;18.14;72.57
11692;BME280;33659;42.672;23.354;2023-05-29T05:05:20;80242.53;;;18.20;72.02
11692;BME280;33659;42.672;23.354;2023-05-29T05:07:48;80237.91;;;18.20;72.05
11692;BME280;33659;42.672;23.354;2023-05-29T05:10:15;80251.56;;;18.25;71.77
11692;BME280;33659;42.672;23.354;2023-05-29T05:12:42;80253.38;;;18.28;71.47
11692;BME280;33659;42.672;23.354;2023-05-29T05:15:09;80262.97;;;18.36;71.15
11692;BME280;33659;42.672;23.354;2023-05-29T05:17:36;80262.06;;;18.41;71.18
11692;BME280;33659;42.672;23.354;2023-05-29T05:20:04;80259.75;;;18.50;70.64
11692;BME280;33659;42.672;23.354;2023-05-29T05:22:31;80270.78;;;18.55;70.73
11692;BME280;33659;42.672;23.354;2023-05-29T05:24:59;80273.81;;;18.61;70.54
11692;BME280;33659;42.672;23.354;2023-05-29T05:27:26;80280.19;;;18.66;70.34
11692;BME280;33659;42.672;23.354;2023-05-29T05:29:53;80276.06;;;18.55;70.04
11692;BME280;33659;42.672;23.354;2023-05-29T05:32:19;80275.72;;;18.63;70.53
11692;BME280;33659;42.672;23.354;2023-05-29T05:34:46;80284.91;;;18.64;70.69
11692;BME280;33659;42.672;23.354;2023-05-29T05:37:13;80281.47;;;18.67;71.07
11692;BME280;33659;42.672;23.354;2023-05-29T05:39:39;80283.88;;;18.74;70.14
11692;BME280;33659;42.672;23.354;2023-05-29T05:42:08;80291.72;;;18.76;70.13
11692;BME280;33659;42.672;23.354;2023-05-29T05:44:34;80292.25;;;18.78;69.52
11692;BME280;33659;42.672;23.354;2023-05-29T05:47:01;80298.63;;;18.83;68.66
11692;BME280;33659;42.672;23.354;2023-05-29T05:49:29;80294.09;;;18.82;69.09
11692;BME280;33659;42.672;23.354;2023-05-29T05:51:56;80286.19;;;18.82;69.26
11692;BME280;33659;42.672;23.354;2023-05-29T05:54:22;80294.78;;;18.80;69.34
11692;BME280;33659;42.672;23.354;2023-05-29T05:56:49;80288.88;;;18.80;69.11
11692;BME280;33659;42.672;23.354;2023-05-29T05:59:17;80287.78;;;18.75;69.31
11692;BME280;33659;42.672;23.354;2023-05-29T06:01:44;80281.53;;;18.65;69.53
11692;BME280;33659;42.672;23.354;2023-05-29T06:04:11;80282.13;;;18.68;69.89
11692;BME280;33659;42.672;23.354;2023-05-29T06:06:37;80271.50;;;18.53;69.60
11692;BME280;33659;42.672;23.354;2023-05-29T06:09:04;80298.16;;;18.79;69.51
11692;BME280;33659;42.672;23.354;2023-05-29T06:11:31;80274.28;;;18.66;69.42
11692;BME280;33659;42.672;23.354;2023-05-29T06:13:58;80299.66;;;18.90;69.48
11692;BME280;33659;42.672;23.354;2023-05-29T06:16:26;80316.25;;;19.04;69.16
11692;BME280;33659;42.672;23.354;2023-05-29T06:18:53;80314.75;;;19.09;69.06
11692;BME280;33659;42.672;23.354;2023-05-29T06:21:20;80312.66;;;19.11;68.72
11692;BME280;33659;42.672;23.354;2023-05-29T06:23:47;80307.31;;;19.13;68.08
11692;BME280;33659;42.672;23.354;2023-05-29T06:26:14;80318.16;;;19.22;68.08
11692;BME280;33659;42.672;23.354;2023-05-29T06:28:41;80324.81;;;19.36;67.75
11692;BME280;33659;42.672;23.354;2023-05-29T06:31:08;80322.91;;;19.34;67.01
11692;BME280;33659;42.672;23.354;2023-05-29T06:33:37;80330.09;;;19.36;66.79
11692;BME280;33659;42.672;23.354;2023-05-29T06:36:04;80316.44;;;19.31;67.47
11692;BME280;33659;42.672;23.354;2023-05-29T06:38:31;80325.94;;;19.41;67.40
11692;BME280;33659;42.672;23.354;2023-05-29T06:40:57;80332.88;;;19.48;66.86
11692;BME280;33659;42.672;23.354;2023-05-29T06:43:24;80304.38;;;19.36;66.57
11692;BME280;33659;42.672;23.354;2023-05-29T06:45:51;80329.34;;;19.54;65.89
11692;BME280;33659;42.672;23.354;2023-05-29T06:48:18;80335.03;;;19.61;66.12
11692;BME280;33659;42.672;23.354;2023-05-29T06:50:47;80338.78;;;19.66;65.97
11692;BME280;33659;42.672;23.354;2023-05-29T06:53:13;80333.22;;;19.72;65.80
11692;BME280;33659;42.672;23.354;2023-05-29T06:55:40;80344.53;;;19.85;65.15
11692;BME280;33659;42.672;23.354;2023-05-29T06:58:07;80348.28;;;19.90;64.89
11692;BME280;33659;42.672;23.354;2023-05-29T07:00:33;80344.44;;;19.87;64.83
11692;BME280;33659;42.672;23.354;2023-05-29T07:03:00;80336.00;;;19.85;65.01
11692;BME280;33659;42.672;23.354;2023-05-29T07:05:27;80335.16;;;19.88;65.22
11692;BME280;33659;42.672;23.354;2023-05-29T07:07:55;80323.44;;;19.85;65.34
11692;BME280;33659;42.672;23.354;2023-05-29T07:10:22;80323.97;;;19.88;65.37
11692;BME280;33659;42.672;23.354;2023-05-29T07:12:48;80321.59;;;19.82;64.98
11692;BME280;33659;42.672;23.354;2023-05-29T07:15:15;80322.31;;;19.80;64.86
11692;BME280;33659;42.672;23.354;2023-05-29T07:17:42;80307.56;;;19.70;64.85
11692;BME280;33659;42.672;23.354;2023-05-29T07:20:09;80283.38;;;19.49;66.07
11692;BME280;33659;42.672;23.354;2023-05-29T07:22:36;80218.16;;;19.33;66.61
11692;BME280;33659;42.672;23.354;2023-05-29T07:25:05;80197.88;;;19.44;66.86
11692;BME280;33659;42.672;23.354;2023-05-29T07:27:32;80226.94;;;19.59;65.95
11692;BME280;33659;42.672;23.354;2023-05-29T07:30:00;80240.13;;;19.73;66.36
11692;BME280;33659;42.672;23.354;2023-05-29T07:32:27;80249.31;;;19.89;66.39
11692;BME280;33659;42.672;23.354;2023-05-29T07:34:54;80263.25;;;20.02;65.59
11692;BME280;33659;42.672;23.354;2023-05-29T07:37:21;80257.41;;;20.15;64.60
11692;BME280;33659;42.672;23.354;2023-05-29T07:39:47;80267.72;;;20.21;64.88
11692;BME280;33659;42.672;23.354;2023-05-29T07:42:15;80269.91;;;20.31;63.92
11692;BME280;33659;42.672;23.354;2023-05-29T07:44:44;80282.00;;;20.41;62.17
11692;BME280;33659;42.672;23.354;2023-05-29T07:47:11;80288.22;;;20.50;62.90
11692;BME280;33659;42.672;23.354;2023-05-29T07:49:38;80282.28;;;20.49;62.29
11692;BME280;33659;42.672;23.354;2023-05-29T07:52:04;80283.56;;;20.50;63.12
11692;BME280;33659;42.672;23.354;2023-05-29T07:54:31;80288.94;;;20.48;62.89
11692;BME280;33659;42.672;23.354;2023-05-29T07:56:59;80280.47;;;20.46;63.00
11692;BME280;33659;42.672;23.354;2023-05-29T07:59:29;80279.91;;;20.43;63.05
11692;BME280;33659;42.672;23.354;2023-05-29T08:01:56;80280.53;;;20.44;62.76
11692;BME280;33659;42.672;23.354;2023-05-29T08:04:23;80276.00;;;20.42;63.00
11692;BME280;33659;42.672;23.354;2023-05-29T08:06:50;80285.13;;;20.45;63.31
11692;BME280;33659;42.672;23.354;2023-05-29T08:09:17;80294.66;;;20.53;63.22
11692;BME280;33659;42.672;23.354;2023-05-29T08:11:44;80290.75;;;20.52;62.83
11692;BME280;33659;42.672;23.354;2023-05-29T08:14:11;80285.13;;;20.45;62.65
11692;BME280;33659;42.672;23.354;2023-05-29T08:16:39;80277.81;;;20.46;62.13
11692;BME280;33659;42.672;23.354;2023-05-29T08:19:06;80272.06;;;20.41;62.69
11692;BME280;33659;42.672;23.354;2023-05-29T08:21:33;80278.00;;;20.42;63.04
11692;BME280;33659;42.672;23.354;2023-05-29T08:24:01;80276.06;;;20.40;63.42
11692;BME280;33659;42.672;23.354;2023-05-29T08:26:30;80271.69;;;20.35;63.33
11692;BME280;33659;42.672;23.354;2023-05-29T08:28:57;80276.56;;;20.45;63.66
11692;BME280;33659;42.672;23.354;2023-05-29T08:31:23;80253.88;;;20.35;63.26
11692;BME280;33659;42.672;23.354;2023-05-29T08:33:52;80280.75;;;20.54;62.93
11692;BME280;33659;42.672;23.354;2023-05-29T08:36:19;80283.38;;;20.54;63.13
11692;BME280;33659;42.672;23.354;2023-05-29T08:38:46;80280.00;;;20.56;62.64
11692;BME280;33659;42.672;23.354;2023-05-29T08:41:19;80280.75;;;20.54;61.87
11692;BME280;33659;42.672;23.354;2023-05-29T08:43:48;80278.19;;;20.52;61.06
11692;BME280;33659;42.672;23.354;2023-05-29T08:46:17;80276.09;;;20.55;60.68
11692;BME280;33659;42.672;23.354;2023-05-29T08:48:48;80279.81;;;20.60;60.67
11692;BME280;33659;42.672;23.354;2023-05-29T08:51:19;80289.28;;;20.70;60.00
11692;BME280;33659;42.672;23.354;2023-05-29T08:53:47;80291.53;;;20.78;60.07
11692;BME280;33659;42.672;23.354;2023-05-29T08:56:14;80295.91;;;20.83;58.95
11692;BME280;33659;42.672;23.354;2023-05-29T08:58:41;80299.19;;;20.84;58.91
11692;BME280;33659;42.672;23.354;2023-05-29T09:01:09;80290.09;;;20.81;58.90
11692;BME280;33659;42.672;23.354;2023-05-29T09:03:35;80293.16;;;20.86;57.96
11692;BME280;33659;42.672;23.354;2023-05-29T09:06:03;80291.59;;;20.91;57.98
11692;BME280;33659;42.672;23.354;2023-05-29T09:08:34;80276.22;;;21.08;57.74
11692;BME280;33659;42.672;23.354;2023-05-29T09:11:02;80280.31;;;21.20;57.55
11692;BME280;33659;42.672;23.354;2023-05-29T09:13:29;80298.25;;;21.32;57.28
11692;BME280;33659;42.672;23.354;2023-05-29T09:15:59;80284.00;;;21.25;56.21
11692;BME280;33659;42.672;23.354;2023-05-29T09:18:29;80284.66;;;21.25;56.06
11692;BME280;33659;42.672;23.354;2023-05-29T09:20:56;80255.66;;;20.96;56.28
11692;BME280;33659;42.672;23.354;2023-05-29T09:23:24;80277.66;;;21.20;56.11
11692;BME280;33659;42.672;23.354;2023-05-29T09:25:53;80277.09;;;21.32;55.92
11692;BME280;33659;42.672;23.354;2023-05-29T09:28:21;80280.91;;;21.35;56.41
11692;BME280;33659;42.672;23.354;2023-05-29T09:30:50;80294.31;;;21.58;54.90
11692;BME280;33659;42.672;23.354;2023-05-29T09:33:17;80293.13;;;21.55;55.18
11692;BME280;33659;42.672;23.354;2023-05-29T09:35:45;80287.31;;;21.53;55.21
11692;BME280;33659;42.672;23.354;2023-05-29T09:38:13;80264.72;;;21.41;54.96
11692;BME280;33659;42.672;23.354;2023-05-29T09:40:41;80270.25;;;21.50;54.96
11692;BME280;33659;42.672;23.354;2023-05-29T09:43:12;80253.91;;;21.32;55.01
11692;BME280;33659;42.672;23.354;2023-05-29T09:45:40;80263.34;;;21.42;54.80
11692;BME280;33659;42.672;23.354;2023-05-29T09:48:08;80244.59;;;21.33;54.66
11692;BME280;33659;42.672;23.354;2023-05-29T09:50:39;80242.78;;;21.30;54.06
11692;BME280;33659;42.672;23.354;2023-05-29T09:53:16;80267.47;;;21.39;53.98
11692;BME280;33659;42.672;23.354;2023-05-29T09:55:44;80261.00;;;21.36;53.84
11692;BME280;33659;42.672;23.354;2023-05-29T09:58:13;80251.91;;;21.33;54.30
11692;BME280;33659;42.672;23.354;2023-05-29T10:00:41;80232.69;;;21.20;54.69
11692;BME280;33659;42.672;23.354;2023-05-29T10:03:08;80252.13;;;21.42;55.37
11692;BME280;33659;42.672;23.354;2023-05-29T10:05:37;80256.03;;;21.43;55.03
11692;BME280;33659;42.672;23.354;2023-05-29T10:08:05;80256.03;;;21.43;55.65
11692;BME280;33659;42.672;23.354;2023-05-29T10:10:34;80256.91;;;21.39;55.79
11692;BME280;33659;42.672;23.354;2023-05-29T10:13:02;80250.22;;;21.40;54.80
11692;BME280;33659;42.672;23.354;2023-05-29T10:15:33;80247.03;;;21.38;54.78
11692;BME280;33659;42.672;23.354;2023-05-29T10:18:03;80256.59;;;21.45;54.44
11692;BME280;33659;42.672;23.354;2023-05-29T10:20:31;80263.28;;;21.57;55.28
11692;BME280;33659;42.672;23.354;2023-05-29T10:23:00;80269.41;;;21.53;54.23
11692;BME280;33659;42.672;23.354;2023-05-29T10:25:31;80263.38;;;21.55;54.19
11692;BME280;33659;42.672;23.354;2023-05-29T10:27:59;80270.91;;;21.63;53.82
11692;BME280;33659;42.672;23.354;2023-05-29T10:30:31;80270.91;;;21.63;54.19
11692;BME280;33659;42.672;23.354;2023-05-29T10:33:12;80264.88;;;21.65;54.28
11692;BME280;33659;42.672;23.354;2023-05-29T10:35:47;80272.63;;;21.69;53.57
11692;BME280;33659;42.672;23.354;2023-05-29T10:38:15;80253.97;;;21.58;54.26
11692;BME280;33659;42.672;23.354;2023-05-29T10:40:44;80273.69;;;21.74;52.68
11692;BME280;33659;42.672;23.354;2023-05-29T10:43:32;80274.97;;;21.75;52.33
11692;BME280;33659;42.672;23.354;2023-05-29T10:45:59;80273.50;;;21.78;52.34
11692;BME280;33659;42.672;23.354;2023-05-29T10:48:41;80268.50;;;21.72;52.22
11692;BME280;33659;42.672;23.354;2023-05-29T10:51:10;80261.81;;;21.60;52.79
11692;BME280;33659;42.672;23.354;2023-05-29T10:53:50;80246.19;;;21.41;53.48
11692;BME280;33659;42.672;23.354;2023-05-29T10:56:22;80237.41;;;21.32;53.83
11692;BME280;33659;42.672;23.354;2023-05-29T10:58:54;80231.66;;;21.27;53.53
11692;BME280;33659;42.672;23.354;2023-05-29T11:01:21;80225.28;;;21.22;54.32
11692;BME280;33659;42.672;23.354;2023-05-29T11:03:50;80220.63;;;21.23;54.24
11692;BME280;33659;42.672;23.354;2023-05-29T11:06:20;80212.81;;;21.21;54.17
11692;BME280;33659;42.672;23.354;2023-05-29T11:08:53;80192.88;;;21.09;53.95
11692;BME280;33659;42.672;23.354;2023-05-29T11:11:29;80226.19;;;21.44;53.67
11692;BME280;33659;42.672;23.354;2023-05-29T11:14:01;80226.63;;;21.49;53.53
11692;BME280;33659;42.672;23.354;2023-05-29T11:16:37;80226.94;;;21.43;53.57
11692;BME280;33659;42.672;23.354;2023-05-29T11:19:06;80212.31;;;21.31;53.62
11692;BME280;33659;42.672;23.354;2023-05-29T11:21:46;80203.69;;;21.18;54.53
11692;BME280;33659;42.672;23.354;2023-05-29T11:24:21;80197.66;;;21.19;55.05
11692;BME280;33659;42.672;23.354;2023-05-29T11:26:50;80207.28;;;21.25;55.15
11692;BME280;33659;42.672;23.354;2023-05-29T11:29:21;80215.38;;;21.35;53.65
11692;BME280;33659;42.672;23.354;2023-05-29T11:31:49;80223.31;;;21.35;53.52
11692;BME280;33659;42.672;23.354;2023-05-29T11:34:23;80212.84;;;21.33;53.74
11692;BME280;33659;42.672;23.354;2023-05-29T11:36:54;80213.47;;;21.34;54.64
11692;BME280;33659;42.672;23.354;2023-05-29T11:39:22;80216.47;;;21.41;54.29
11692;BME280;33659;42.672;23.354;2023-05-29T11:41:52;80214.47;;;21.54;53.24
11692;BME280;33659;42.672;23.354;2023-05-29T11:44:19;80225.38;;;21.60;52.88
11692;BME280;33659;42.672;23.354;2023-05-29T11:46:46;80238.19;;;21.69;52.97
11692;BME280;33659;42.672;23.354;2023-05-29T11:49:13;80231.63;;;21.68;53.09
11692;BME280;33659;42.672;23.354;2023-05-29T11:51:43;80209.28;;;21.52;53.06
11692;BME280;33659;42.672;23.354;2023-05-29T11:54:12;80228.25;;;21.69;53.93
11692;BME280;33659;42.672;23.354;2023-05-29T11:56:38;80221.13;;;21.53;54.83
11692;BME280;33659;42.672;23.354;2023-05-29T11:59:10;80202.22;;;21.21;57.33
11692;BME280;33659;42.672;23.354;2023-05-29T12:01:37;80157.94;;;20.66;60.71
11692;BME280;33659;42.672;23.354;2023-05-29T12:04:14;80111.31;;;20.06;65.02
11692;BME280;33659;42.672;23.354;2023-05-29T12:06:41;80093.00;;;19.74;66.82
11692;BME280;33659;42.672;23.354;2023-05-29T12:09:09;80075.56;;;19.52;68.57
11692;BME280;33659;42.672;23.354;2023-05-29T12:11:35;80083.56;;;19.20;67.32
11692;BME280;33659;42.672;23.354;2023-05-29T12:14:02;80063.56;;;18.96;68.62
11692;BME280;33659;42.672;23.354;2023-05-29T12:16:30;80043.84;;;18.80;69.00
11692;BME280;33659;42.672;23.354;2023-05-29T12:18:59;80044.56;;;18.78;70.43
11692;BME280;33659;42.672;23.354;2023-05-29T12:21:26;80050.94;;;18.83;70.13
11692;BME280;33659;42.672;23.354;2023-05-29T12:23:54;80055.31;;;18.89;72.04
11692;BME280;33659;42.672;23.354;2023-05-29T12:26:23;80064.75;;;18.99;72.42
11692;BME280;33659;42.672;23.354;2023-05-29T12:28:51;80067.22;;;19.03;71.62
11692;BME280;33659;42.672;23.354;2023-05-29T12:31:28;80089.66;;;19.16;71.51
11692;BME280;33659;42.672;23.354;2023-05-29T12:34:00;80095.03;;;19.29;70.46
11692;BME280;33659;42.672;23.354;2023-05-29T12:36:27;80101.19;;;19.38;69.62
11692;BME280;33659;42.672;23.354;2023-05-29T12:38:54;80082.91;;;19.49;68.38
11692;BME280;33659;42.672;23.354;2023-05-29T12:41:28;80088.38;;;19.60;68.77
11692;BME280;33659;42.672;23.354;2023-05-29T12:43:55;80079.88;;;19.57;67.11
11692;BME280;33659;42.672;23.354;2023-05-29T12:46:23;80095.44;;;19.78;66.18
11692;BME280;33659;42.672;23.354;2023-05-29T12:48:52;80099.81;;;19.84;63.90
11692;BME280;33659;42.672;23.354;2023-05-29T12:51:22;80103.22;;;19.95;64.53
11692;BME280;33659;42.672;23.354;2023-05-29T12:53:50;80087.63;;;19.76;69.00
11692;BME280;33659;42.672;23.354;2023-05-29T12:56:20;80071.81;;;19.61;68.54